Time;durP1;ratioP1;P1;durP2;ratioP2;P2;SDS_P1;SDS_P2;PMS_P1;PMS_P2;Temp;Humidity;BMP_temperature;BMP_pressure;BME280_temperature;BME280_humidity;BME280_pressure;Samples;Min_cycle;Max_cycle;Signal;HPM_P1;HPM_P2
2021/01/21 00:52:39;;;;;;;;;46.75;39.25;;;;;19.88;49.06;99209.00;5087647;27;13505;-73
2021/01/21 00:55:09;;;;;;;;;41.25;32.50;;;;;20.01;48.17;99224.13;5086148;28;11588;-71
2021/01/21 00:57:37;;;;;;;;;45.25;36.00;;;;;20.09;47.71;99223.31;5085308;28;11674;-71
2021/01/21 01:00:11;;;;;;;;;48.75;40.50;;;;;20.14;47.28;99228.50;5084101;28;11547;-70
2021/01/21 01:02:39;;;;;;;;;53.50;39.50;;;;;20.20;46.68;99229.13;5085607;28;11581;-70
2021/01/21 01:05:09;;;;;;;;;47.50;38.50;;;;;20.10;47.11;99219.53;5089007;28;11580;-71
2021/01/21 01:07:37;;;;;;;;;48.25;38.25;;;;;20.20;47.29;99237.94;5087249;28;11610;-73
2021/01/21 01:10:05;;;;;;;;;46.25;37.25;;;;;20.07;47.26;99222.06;5085404;28;11658;-71
2021/01/21 01:12:35;;;;;;;;;51.00;41.00;;;;;20.22;47.22;99243.00;5087003;28;11652;-70
2021/01/21 01:15:06;;;;;;;;;46.75;40.00;;;;;20.22;47.68;99237.63;5087643;28;11587;-69
2021/01/21 01:17:35;;;;;;;;;47.50;38.50;;;;;20.28;48.33;99248.97;5086383;28;11654;-71
2021/01/21 01:20:05;;;;;;;;;55.75;44.00;;;;;20.31;47.62;99246.44;5087673;28;12355;-70
2021/01/21 01:22:33;;;;;;;;;54.50;40.50;;;;;20.34;47.36;99250.38;5086943;28;11662;-69
2021/01/21 01:25:01;;;;;;;;;46.00;38.75;;;;;20.38;48.50;99249.44;5085789;28;11551;-69
2021/01/21 01:27:29;;;;;;;;;49.00;39.00;;;;;20.37;48.70;99249.75;5081961;28;11554;-70
2021/01/21 01:29:58;;;;;;;;;50.25;41.50;;;;;20.42;47.90;99245.03;5085689;28;11571;-70
2021/01/21 01:32:26;;;;;;;;;48.25;41.50;;;;;20.37;47.19;99236.34;5085399;28;11571;-71
2021/01/21 01:34:54;;;;;;;;;53.50;42.50;;;;;20.46;48.15;99247.84;5085576;28;11587;-71
2021/01/21 01:37:23;;;;;;;;;53.25;42.50;;;;;20.52;48.22;99254.63;5085346;28;11574;-72
2021/01/21 01:39:51;;;;;;;;;54.75;42.50;;;;;20.60;48.21;99255.69;5116811;28;11706;-71
2021/01/21 01:42:20;;;;;;;;;50.50;40.75;;;;;20.69;47.71;99270.66;5083818;28;11584;-71
2021/01/21 01:44:48;;;;;;;;;51.75;42.00;;;;;20.67;47.80;99258.69;5085742;28;11565;-70
2021/01/21 01:47:17;;;;;;;;;49.50;39.50;;;;;20.80;48.44;99277.22;5083765;28;12588;-71
2021/01/21 01:49:46;;;;;;;;;47.75;40.75;;;;;20.86;47.87;99283.19;5085509;28;11589;-72
2021/01/21 01:52:15;;;;;;;;;47.50;39.50;;;;;20.90;47.52;99269.91;5085494;28;11559;-71
2021/01/21 01:54:44;;;;;;;;;30.50;27.00;;;;;21.00;47.14;99288.34;5087739;28;11586;-71
2021/01/21 01:57:12;;;;;;;;;48.50;40.50;;;;;21.05;47.00;99283.59;5087331;28;11587;-69
2021/01/21 01:59:42;;;;;;;;;47.00;40.25;;;;;21.10;46.93;99285.28;5087968;28;11647;-68
2021/01/21 02:02:10;;;;;;;;;44.00;36.25;;;;;21.22;46.88;99293.47;5082981;28;11577;-68
2021/01/21 02:04:39;;;;;;;;;51.75;41.25;;;;;21.27;46.80;99285.25;5071900;28;11584;-68
2021/01/21 02:07:08;;;;;;;;;47.50;38.50;;;;;21.37;46.58;99284.88;5074088;28;11685;-68
2021/01/21 02:09:37;;;;;;;;;49.25;40.50;;;;;21.44;46.69;99287.84;5074738;28;11689;-68
2021/01/21 02:12:29;;;;;;;;;41.00;34.25;;;;;21.53;46.44;99282.41;5072743;28;11640;-68
2021/01/21 02:15:22;;;;;;;;;51.75;41.50;;;;;21.61;46.17;99286.94;5072317;28;11550;-69
2021/01/21 02:18:00;;;;;;;;;48.50;40.75;;;;;21.72;46.11;99280.06;5073653;28;11561;-68
2021/01/21 02:21:01;;;;;;;;;49.75;39.25;;;;;21.81;45.82;99285.38;5073776;28;12322;-68
2021/01/21 02:23:54;;;;;;;;;50.25;40.00;;;;;21.85;45.71;99275.56;5073900;28;11597;-68
2021/01/21 02:26:28;;;;;;;;;53.75;39.50;;;;;21.85;45.88;99272.88;5074047;28;11527;-70
2021/01/21 02:29:13;;;;;;;;;47.25;37.75;;;;;22.04;45.29;99288.53;5073940;28;12255;-70
2021/01/21 02:31:54;;;;;;;;;46.25;36.00;;;;;22.11;45.71;99291.47;5074138;28;11524;-69
2021/01/21 02:34:45;;;;;;;;;51.25;41.00;;;;;22.07;45.65;99269.88;5072434;28;11564;-69
2021/01/21 02:37:24;;;;;;;;;50.25;40.25;;;;;22.28;45.16;99290.50;5073806;28;11603;-69
2021/01/21 02:39:56;;;;;;;;;55.00;40.50;;;;;22.31;45.11;99274.53;5073623;28;11617;-69
2021/01/21 02:42:26;;;;;;;;;47.25;36.50;;;;;22.42;44.84;99291.81;5072048;28;11511;-72
2021/01/21 02:44:55;;;;;;;;;44.50;38.25;;;;;22.48;44.88;99283.53;5072277;28;11496;-69
2021/01/21 02:47:26;;;;;;;;;42.25;36.50;;;;;22.49;44.80;99275.13;5068819;28;11596;-69
2021/01/21 02:49:56;;;;;;;;;49.50;39.75;;;;;22.55;44.38;99265.72;5072210;28;11516;-69
2021/01/21 02:52:42;;;;;;;;;46.50;39.00;;;;;22.69;44.46;99268.91;5069799;28;12293;-70
2021/01/21 02:55:18;;;;;;;;;47.50;39.50;;;;;22.74;44.42;99271.38;5070843;28;11485;-69
2021/01/21 02:58:06;;;;;;;;;50.00;39.00;;;;;22.87;44.30;99279.50;5069857;28;12254;-69
2021/01/21 03:00:38;;;;;;;;;50.50;40.25;;;;;22.93;44.09;99273.56;5070914;28;12235;-69
2021/01/21 03:03:16;;;;;;;;;47.25;36.50;;;;;22.98;43.98;99275.25;5071641;28;11526;-69
2021/01/21 03:05:51;;;;;;;;;45.00;36.00;;;;;23.03;44.01;99258.88;5070163;28;11472;-69
2021/01/21 03:08:20;;;;;;;;;48.50;38.75;;;;;23.18;43.41;99262.78;5068723;28;11530;-69
2021/01/21 03:10:51;;;;;;;;;43.00;35.25;;;;;23.25;43.36;99269.19;5071482;28;11508;-69
2021/01/21 03:13:20;;;;;;;;;35.50;32.50;;;;;23.28;43.32;99255.06;5068851;28;11504;-68
2021/01/21 03:15:49;;;;;;;;;42.25;35.00;;;;;23.37;43.15;99261.09;5069810;28;11292;-69
2021/01/21 03:18:20;;;;;;;;;48.00;37.25;;;;;23.40;43.56;99260.41;5071822;28;11541;-69
2021/01/21 03:20:49;;;;;;;;;37.75;31.50;;;;;23.36;42.99;99245.28;5070417;28;11504;-70
2021/01/21 03:23:17;;;;;;;;;47.50;37.00;;;;;23.42;42.76;99247.38;5071454;28;11189;-70
2021/01/21 03:25:45;;;;;;;;;45.50;39.50;;;;;23.51;43.15;99255.31;5071360;28;11580;-70
2021/01/21 03:28:14;;;;;;;;;39.50;34.75;;;;;23.51;43.20;99241.88;5071035;28;11498;-69
2021/01/21 03:30:43;;;;;;;;;44.25;35.25;;;;;23.66;43.17;99259.25;5086049;28;11162;-70
2021/01/21 03:33:11;;;;;;;;;35.75;34.50;;;;;23.71;43.59;99256.31;5071194;28;11930;-69
2021/01/21 03:35:40;;;;;;;;;44.25;34.50;;;;;23.70;42.33;99236.69;5069200;28;11210;-71
2021/01/21 03:38:08;;;;;;;;;41.75;33.75;;;;;23.84;42.69;99249.00;5069929;28;11050;-70
2021/01/21 03:40:37;;;;;;;;;33.50;32.50;;;;;23.89;43.15;99246.84;5069654;28;11037;-70
2021/01/21 03:43:05;;;;;;;;;35.50;32.25;;;;;23.95;42.44;99252.75;5068965;28;11219;-70
2021/01/21 03:45:34;;;;;;;;;42.50;36.75;;;;;23.99;41.80;99240.97;5070673;28;11067;-70
2021/01/21 03:48:04;;;;;;;;;43.00;33.50;;;;;24.00;42.53;99229.06;5068827;28;10886;-71
2021/01/21 03:50:32;;;;;;;;;38.75;33.50;;;;;24.06;42.84;99224.19;5070173;28;10996;-70
2021/01/21 03:53:01;;;;;;;;;39.50;33.50;;;;;24.16;42.01;99225.63;5070522;28;10905;-70
2021/01/21 03:55:29;;;;;;;;;47.25;38.75;;;;;24.21;42.66;99225.38;5070113;28;10993;-70
2021/01/21 03:57:57;;;;;;;;;34.50;31.00;;;;;24.21;41.76;99214.56;5067934;28;10902;-70
2021/01/21 04:00:26;;;;;;;;;36.50;33.75;;;;;24.27;41.30;99210.53;5070577;28;11214;-70
2021/01/21 04:02:54;;;;;;;;;48.50;34.25;;;;;24.30;41.58;99205.22;5070124;28;10500;-70
2021/01/21 04:05:23;;;;;;;;;37.50;32.25;;;;;24.38;42.31;99208.91;5070550;28;10810;-70
2021/01/21 04:07:51;;;;;;;;;37.25;34.00;;;;;24.36;40.97;99195.75;5070129;28;10688;-69
2021/01/21 04:10:19;;;;;;;;;37.00;35.75;;;;;24.48;41.33;99208.38;5069852;28;10670;-70
2021/01/21 04:12:48;;;;;;;;;39.00;34.00;;;;;24.51;40.88;99202.28;5070035;28;11482;-70
2021/01/21 04:15:16;;;;;;;;;41.00;35.00;;;;;24.55;41.04;99196.97;5069803;28;10648;-70
2021/01/21 04:17:45;;;;;;;;;35.75;33.50;;;;;24.64;40.65;99198.38;5068406;28;10826;-69
2021/01/21 04:20:14;;;;;;;;;41.75;35.50;;;;;24.77;41.07;99190.94;5066846;28;10521;-70
2021/01/21 04:22:46;;;;;;;;;45.25;36.00;;;;;24.78;40.92;99180.94;5067752;28;10673;-70
2021/01/21 04:25:15;;;;;;;;;34.25;32.00;;;;;24.90;41.77;99192.41;5066427;28;10589;-69
2021/01/21 04:27:44;;;;;;;;;36.50;32.50;;;;;24.85;42.15;99170.31;5067115;28;10822;-69
2021/01/21 04:30:13;;;;;;;;;33.75;32.50;;;;;24.93;41.93;99170.13;5067777;28;10931;-70
2021/01/21 04:32:42;;;;;;;;;36.50;29.25;;;;;24.92;40.43;99167.75;5067385;28;10597;-70
2021/01/21 04:35:13;;;;;;;;;33.75;33.00;;;;;24.97;40.98;99168.31;5067704;28;11327;-71
2021/01/21 04:37:42;;;;;;;;;35.25;31.75;;;;;25.00;39.70;99156.03;5067404;28;10657;-72
2021/01/21 04:40:11;;;;;;;;;44.25;31.75;;;;;24.98;39.85;99150.97;5067205;28;10553;-71
2021/01/21 04:42:39;;;;;;;;;35.25;33.25;;;;;25.00;41.66;99137.13;5065917;28;10464;-72
2021/01/21 04:45:13;;;;;;;;;35.00;31.25;;;;;25.07;40.24;99137.28;5066630;28;10742;-70
2021/01/21 04:47:42;;;;;;;;;40.00;36.50;;;;;25.15;39.77;99130.13;5066966;28;10363;-72
2021/01/21 04:50:12;;;;;;;;;40.50;35.25;;;;;25.17;41.27;99119.75;5067698;28;10828;-72
2021/01/21 04:52:46;;;;;;;;;46.50;35.50;;;;;25.26;41.23;99126.50;5068270;28;10865;-72
2021/01/21 04:55:20;;;;;;;;;33.25;30.75;;;;;25.29;40.44;99114.22;5068034;28;11278;-72
2021/01/21 04:58:16;;;;;;;;;31.25;30.00;;;;;25.30;38.99;99113.88;5066405;28;10545;-71
2021/01/21 05:00:45;;;;;;;;;33.50;27.75;;;;;25.34;40.93;99106.63;5047895;28;10257;-71
2021/01/21 05:03:14;;;;;;;;;37.75;30.50;;;;;25.38;39.31;99103.19;5069272;28;10257;-74
2021/01/21 05:05:43;;;;;;;;;42.75;29.25;;;;;25.43;38.48;99100.22;5067264;28;10441;-71
2021/01/21 05:08:12;;;;;;;;;29.50;26.75;;;;;25.43;39.25;99084.00;5065256;28;10391;-73
2021/01/21 05:10:41;;;;;;;;;31.75;28.00;;;;;25.57;39.07;99092.38;5048077;28;10171;-72
2021/01/21 05:13:10;;;;;;;;;32.25;27.75;;;;;25.66;40.23;99082.94;5067665;28;10441;-72
2021/01/21 05:15:38;;;;;;;;;30.75;28.75;;;;;25.74;40.88;99074.97;5068561;28;10011;-72
2021/01/21 05:18:13;;;;;;;;;33.00;27.25;;;;;25.66;38.79;99060.56;5069699;28;10094;-71
2021/01/21 05:20:41;;;;;;;;;26.50;26.50;;;;;25.68;39.57;99047.47;5069851;28;9950;-72
2021/01/21 05:23:10;;;;;;;;;31.75;29.00;;;;;25.81;39.97;99062.38;5068165;28;10161;-74
2021/01/21 05:25:38;;;;;;;;;29.75;29.25;;;;;25.74;38.95;99046.03;5046334;28;10180;-72
2021/01/21 05:28:07;;;;;;;;;27.75;26.75;;;;;25.72;40.73;99028.63;5048793;28;10120;-73
2021/01/21 05:30:36;;;;;;;;;23.25;19.25;;;;;25.83;40.55;99041.16;5068356;28;10491;-70
2021/01/21 05:33:04;;;;;;;;;31.25;26.00;;;;;25.86;37.60;99035.03;5048214;28;9851;-71
2021/01/21 05:35:35;;;;;;;;;27.75;27.25;;;;;25.87;37.02;99030.41;5068709;28;9774;-72
2021/01/21 05:38:03;;;;;;;;;31.75;24.50;;;;;25.99;39.01;99036.41;5070436;28;9842;-70
2021/01/21 05:40:32;;;;;;;;;25.00;25.00;;;;;26.02;39.04;99015.97;5072963;28;10046;-72
2021/01/21 05:43:02;;;;;;;;;30.50;27.75;;;;;26.06;40.23;99013.31;5055349;28;9906;-69
2021/01/21 05:45:31;;;;;;;;;28.75;26.25;;;;;26.08;40.00;99011.81;5069908;28;10042;-69
2021/01/21 05:48:00;;;;;;;;;25.25;17.25;;;;;26.11;38.37;99010.28;5070724;28;10079;-69
2021/01/21 05:50:30;;;;;;;;;31.25;24.75;;;;;26.08;37.61;98992.88;5068657;28;9851;-71
2021/01/21 05:52:59;;;;;;;;;23.00;20.75;;;;;26.22;38.25;98995.78;5073218;28;9950;-72
2021/01/21 05:55:28;;;;;;;;;26.50;20.50;;;;;26.28;39.51;98985.44;5070405;28;9767;-73
2021/01/21 05:57:56;;;;;;;;;33.00;26.00;;;;;26.33;38.94;98977.03;5070056;28;10038;-72
2021/01/21 06:00:26;;;;;;;;;31.25;28.00;;;;;26.45;38.72;98984.16;5072551;28;9742;-69
2021/01/21 06:02:54;;;;;;;;;27.00;25.50;;;;;26.37;36.32;98964.34;5072304;28;9861;-69
2021/01/21 06:05:24;;;;;;;;;31.75;27.75;;;;;26.45;38.34;98960.59;5071376;28;9933;-71
2021/01/21 06:07:53;;;;;;;;;31.50;25.50;;;;;26.57;36.20;98965.00;5073061;28;9774;-69
2021/01/21 06:10:22;;;;;;;;;26.25;22.25;;;;;26.59;37.79;98949.94;5072775;28;9625;-69
2021/01/21 06:12:52;;;;;;;;;26.50;22.25;;;;;26.64;38.99;98948.84;5070259;28;9704;-68
2021/01/21 06:15:21;;;;;;;;;26.25;26.00;;;;;26.64;38.71;98946.94;5072587;28;9741;-69
2021/01/21 06:17:50;;;;;;;;;29.25;25.75;;;;;26.64;38.61;98936.09;5072987;28;10569;-69
2021/01/21 06:20:21;;;;;;;;;23.25;19.25;;;;;26.60;38.87;98929.09;5066328;28;9714;-72
2021/01/21 06:22:55;;;;;;;;;31.00;24.75;;;;;26.63;37.61;98931.06;5070648;28;9547;-70
2021/01/21 06:25:25;;;;;;;;;28.75;25.50;;;;;26.68;36.24;98916.41;5071460;28;10349;-71
2021/01/21 06:27:55;;;;;;;;;25.75;22.00;;;;;26.77;38.78;98919.63;5071458;28;9789;-71
2021/01/21 06:30:24;;;;;;;;;29.75;27.75;;;;;26.80;37.89;98910.75;5070222;28;9716;-71
2021/01/21 06:33:06;;;;;;;;;34.00;24.00;;;;;26.83;38.21;98910.78;5070946;28;9764;-72
2021/01/21 06:35:41;;;;;;;;;28.00;28.00;;;;;26.90;38.16;98923.63;5071507;28;9604;-72
2021/01/21 06:38:19;;;;;;;;;35.00;30.50;;;;;26.91;36.18;98907.00;5072086;28;9856;-71
2021/01/21 06:40:52;;;;;;;;;27.50;23.00;;;;;26.93;38.02;98906.66;5071638;28;9720;-70
2021/01/21 06:43:32;;;;;;;;;8.00;8.00;;;;;26.91;37.88;98888.06;5069843;28;9706;-69
2021/01/21 06:46:00;;;;;;;;;30.00;26.00;;;;;26.99;37.06;98890.88;5071882;28;9586;-70
2021/01/21 06:48:30;;;;;;;;;28.75;25.50;;;;;27.05;37.46;98883.97;5072445;28;9625;-69
2021/01/21 06:51:04;;;;;;;;;27.50;21.25;;;;;27.09;38.20;98876.66;5070368;28;9626;-70
2021/01/21 06:53:34;;;;;;;;;20.25;17.25;;;;;27.16;37.56;98871.31;5072602;28;9745;-70
2021/01/21 06:56:03;;;;;;;;;31.75;25.50;;;;;27.13;35.77;98850.41;5071863;28;9875;-71
2021/01/21 06:58:44;;;;;;;;;23.33;23.33;;;;;27.20;35.40;98848.53;5070637;28;9454;-71
2021/01/21 07:01:32;;;;;;;;;30.25;27.75;;;;;27.35;36.86;98852.09;5069706;28;9524;-71
2021/01/21 07:04:04;;;;;;;;;31.25;28.00;;;;;27.47;36.52;98851.03;5071284;28;9474;-71
2021/01/21 07:06:54;;;;;;;;;32.50;29.25;;;;;27.55;36.39;98845.28;5070873;28;9634;-70
2021/01/21 07:09:25;;;;;;;;;25.00;23.75;;;;;27.60;34.32;98833.34;5070845;28;9709;-71
2021/01/21 07:12:00;;;;;;;;;23.67;22.00;;;;;27.59;36.83;98821.72;5065443;28;10171;-70
2021/01/21 07:14:34;;;;;;;;;26.75;25.00;;;;;27.63;35.70;98802.00;5070597;28;9334;-70
2021/01/21 07:17:05;;;;;;;;;28.33;24.67;;;;;27.77;35.77;98816.41;5071259;28;9344;-70
2021/01/21 07:19:48;;;;;;;;;29.25;27.25;;;;;27.81;36.75;98814.47;5068108;28;9400;-71
2021/01/21 07:22:20;;;;;;;;;25.25;23.75;;;;;27.81;36.49;98802.88;5068471;28;9522;-70
2021/01/21 07:24:57;;;;;;;;;27.00;25.67;;;;;27.80;34.73;98802.09;5071255;28;9541;-70
2021/01/21 07:27:29;;;;;;;;;28.75;24.25;;;;;27.76;35.12;98787.75;5071579;28;9387;-75
2021/01/21 07:30:26;;;;;;;;;24.00;21.67;;;;;27.89;36.54;98794.38;5070161;28;9417;-70
2021/01/21 07:33:19;;;;;;;;;21.33;19.67;;;;;27.88;36.19;98792.84;5071163;28;9304;-70
2021/01/21 07:35:49;;;;;;;;;26.33;22.00;;;;;27.86;36.03;98788.94;5071723;28;9312;-70
2021/01/21 07:38:42;;;;;;;;;26.67;22.33;;;;;27.87;35.90;98785.84;5072774;28;9231;-70
2021/01/21 07:41:38;;;;;;;;;32.00;25.00;;;;;27.90;33.41;98785.09;5072844;28;9155;-70
2021/01/21 07:44:06;;;;;;;;;24.67;22.67;;;;;27.93;35.73;98756.44;5072519;28;9878;-70
2021/01/21 07:46:34;;;;;;;;;28.67;25.00;;;;;28.10;34.84;98771.22;5072074;28;9091;-71
2021/01/21 07:49:22;;;;;;;;;22.67;20.00;;;;;28.16;34.70;98769.69;5070912;28;9363;-71
2021/01/21 07:52:02;;;;;;;;;27.00;25.67;;;;;28.11;34.99;98762.72;5070588;28;9168;-70
2021/01/21 07:54:45;;;;;;;;;31.33;27.00;;;;;28.08;34.32;98762.69;5070862;28;9392;-71
2021/01/21 07:57:22;;;;;;;;;28.00;23.00;;;;;28.10;33.51;98754.94;5069896;28;9249;-70
2021/01/21 08:00:03;;;;;;;;;22.67;22.00;;;;;28.17;34.35;98752.25;5068486;28;9167;-70
2021/01/21 08:02:44;;;;;;;;;23.33;22.33;;;;;28.27;36.23;98758.91;5069020;28;9058;-70
2021/01/21 08:05:16;;;;;;;;;27.67;23.33;;;;;28.29;36.11;98762.00;5069901;28;9025;-70
2021/01/21 08:07:48;;;;;;;;;6.33;5.00;;;;;28.22;36.12;98749.97;5070334;28;9108;-70
2021/01/21 08:10:21;;;;;;;;;22.00;19.00;;;;;28.27;36.03;98756.19;5068566;28;9004;-70
2021/01/21 08:12:58;;;;;;;;;13.67;12.33;;;;;28.21;35.89;98753.81;5069571;28;9085;-73
2021/01/21 08:15:28;;;;;;;;;26.00;21.33;;;;;28.21;35.65;98758.47;5071560;28;9004;-70
2021/01/21 08:17:58;;;;;;;;;28.33;25.33;;;;;28.21;34.52;98761.19;5071986;28;8931;-71
2021/01/21 08:20:30;;;;;;;;;28.00;25.67;;;;;28.28;32.85;98749.59;5072014;28;9308;-70
2021/01/21 08:23:08;;;;;;;;;24.00;21.00;;;;;28.34;34.81;98759.69;5072118;28;9409;-70
2021/01/21 08:25:45;;;;;;;;;30.00;26.33;;;;;28.45;34.59;98752.34;5072744;28;9942;-70
2021/01/21 08:28:21;;;;;;;;;25.67;22.00;;;;;28.44;35.18;98742.66;5072277;28;9206;-70
2021/01/21 08:30:50;;;;;;;;;24.00;22.33;;;;;28.45;35.07;98746.16;5071964;28;9036;-70
2021/01/21 08:33:22;;;;;;;;;22.33;21.67;;;;;28.39;35.36;98743.03;5071912;28;8941;-70
2021/01/21 08:35:56;;;;;;;;;23.33;21.33;;;;;28.40;35.79;98743.81;5072107;28;9091;-70
2021/01/21 08:38:32;;;;;;;;;19.00;19.00;;;;;28.31;35.20;98736.06;5071775;28;8994;-69
2021/01/21 08:41:02;;;;;;;;;24.00;24.00;;;;;28.30;34.35;98736.44;4935036;28;9296;-70
2021/01/21 08:43:31;;;;;;;;;19.33;19.00;;;;;28.31;35.71;98746.91;4806762;28;9153;-72
2021/01/21 08:46:19;;;;;;;;;25.33;23.67;;;;;28.25;35.84;98738.38;4863061;28;9162;-70
2021/01/21 08:48:50;;;;;;;;;28.00;25.00;;;;;28.27;34.80;98743.41;4908140;28;9041;-70
2021/01/21 08:51:34;;;;;;;;;23.00;20.00;;;;;28.26;35.10;98741.84;4944088;28;9030;-72
2021/01/21 08:54:19;;;;;;;;;25.00;25.00;;;;;28.23;34.30;98742.63;4975004;28;8886;-71
2021/01/21 08:57:09;;;;;;;;;21.33;21.33;;;;;28.20;33.62;98738.72;4998437;28;10681;-70
2021/01/21 08:59:39;;;;;;;;;19.50;16.00;;;;;28.20;34.55;98746.06;5007461;28;9184;-72
2021/01/21 09:02:08;;;;;;;;;27.00;22.00;;;;;28.19;33.00;98744.53;5041477;28;8934;-71
2021/01/21 09:04:39;;;;;;;;;29.00;23.00;;;;;28.21;33.59;98744.91;5042280;28;8938;-71
2021/01/21 09:07:09;;;;;;;;;24.50;22.50;;;;;28.29;33.11;98743.78;5049482;28;9088;-71
2021/01/21 09:09:41;;;;;;;;;23.00;22.67;;;;;28.40;33.12;98738.38;5050224;28;8865;-70
2021/01/21 09:12:20;;;;;;;;;25.25;21.50;;;;;28.50;32.80;98745.78;5050245;28;9095;-70
2021/01/21 09:15:01;;;;;;;;;30.00;25.33;;;;;28.58;32.60;98736.47;5053773;28;8885;-71
2021/01/21 09:17:30;;;;;;;;;26.75;23.25;;;;;28.62;32.95;98741.88;5053520;28;9203;-71
2021/01/21 09:20:03;;;;;;;;;28.75;22.50;;;;;28.73;33.08;98748.09;5055120;28;8858;-71
2021/01/21 09:22:39;;;;;;;;;27.75;25.75;;;;;28.78;33.26;98745.00;5054981;28;8838;-70
2021/01/21 09:25:09;;;;;;;;;27.33;21.00;;;;;28.79;34.15;98736.47;5054773;28;8864;-71
2021/01/21 09:27:39;;;;;;;;;24.75;23.00;;;;;28.77;34.41;98738.00;5054093;28;8979;-71
2021/01/21 09:30:13;;;;;;;;;20.67;18.33;;;;;28.56;34.17;98723.28;5054406;28;8842;-70
2021/01/21 09:32:43;;;;;;;;;26.67;24.67;;;;;28.63;33.81;98738.78;5054331;28;8939;-71
2021/01/21 09:35:17;;;;;;;;;30.67;24.67;;;;;28.57;33.80;98751.22;5054755;28;8946;-70
2021/01/21 09:37:48;;;;;;;;;31.67;30.00;;;;;28.52;33.23;98744.22;5054723;28;9643;-69
2021/01/21 09:40:37;;;;;;;;;30.67;26.00;;;;;28.50;33.36;98751.97;5054281;28;9250;-68
2021/01/21 09:43:06;;;;;;;;;27.25;25.25;;;;;28.54;33.75;98754.69;5053814;28;9188;-69
2021/01/21 09:45:34;;;;;;;;;21.25;21.25;;;;;28.49;33.44;98744.22;5053715;28;8854;-70
2021/01/21 09:48:04;;;;;;;;;29.00;27.00;;;;;28.56;33.18;98755.09;5054451;28;9021;-70
2021/01/21 09:50:32;;;;;;;;;30.00;25.33;;;;;28.55;33.27;98748.88;5053921;28;9004;-69
2021/01/21 09:53:00;;;;;;;;;23.00;21.25;;;;;28.55;33.37;98754.31;5054000;28;9066;-69
2021/01/21 09:55:29;;;;;;;;;26.75;25.00;;;;;28.56;33.06;98760.50;5053251;28;8838;-69
2021/01/21 09:58:00;;;;;;;;;25.75;22.75;;;;;28.56;33.23;98764.00;5052961;28;8865;-70
2021/01/21 10:00:28;;;;;;;;;28.67;25.33;;;;;28.52;33.12;98760.50;5054012;28;8858;-68
2021/01/21 10:02:57;;;;;;;;;23.33;23.33;;;;;28.52;32.80;98771.38;5053390;28;8915;-68
